Main page
METAR-TAF:

METAR-TAF

Airports :

Hamad International Airport

Doha, Qatar

latitude: 25-16-23N, longitude: 51-36-29E, elevation: 4 m

Current weather observation

The report was made 19 minutes ago, at 14:00 UTC
Wind 13 kt from the North/Northeast
Temperature 35°C
Humidity 60%
Pressure 995 hPa
Visibility: 4700 m

METAR: OTHH 181400Z AUTO 02013KT 9999 4700 NCD 35/26 Q0995 NOSIG

Time: 17:19 (14:19 UTC)

Forecast

The report was made 3 hours and 18 minutes ago, at 11:01 UTC
Forecast valid from 18 at 12 UTC to 19 at 18 UTC
Wind 12 kt from the North
Visibility: 8000 m
Becoming
from 18 at 19 UTC to 18 at 21 UTC
Wind 7 kt from the West/Northwest
Probability 30% :
Temporary
from 18 at 20 UTC to 19 at 03 UTC
Wind 2 kt from variable directions

TAF: OTHH 181101Z 1812/1918 36012KT 8000 NSC BECMG 1819/1821 30007KT PROB30 TEMPO 1820/1903 VRB02KT

Weather observations and forecasts of more than 4000 airports (METAR and TAF reports).

The available stations are represented by yellow and red dots on the map.

Hover mouse over dot to see the name of the station.

Then click to see weather observations and forecasts.

To change the map : click on the green buttons with a black cross to zoom in, on the green button with a dash to zoom out, or on the green arrows for adjacent maps.


METAR-TAF: